createdAt,value
2018-11-02T00:00:19.048Z,9.80
2018-11-02T00:02:23.937Z,9.80
2018-11-02T00:04:31.171Z,9.80
2018-11-02T00:06:38.158Z,9.80
2018-11-02T00:08:45.867Z,9.80
2018-11-02T00:10:52.131Z,9.80
2018-11-02T00:12:57.890Z,9.80
2018-11-02T00:15:05.105Z,9.80
2018-11-02T00:17:11.914Z,9.80
2018-11-02T00:19:22.006Z,9.80
2018-11-02T00:21:28.119Z,9.90
2018-11-02T00:23:38.250Z,9.90
2018-11-02T00:25:44.811Z,10.00
2018-11-02T00:27:52.474Z,10.00
2018-11-02T00:29:57.153Z,9.90
2018-11-02T00:32:01.505Z,10.00
2018-11-02T00:34:35.751Z,10.00
2018-11-02T00:37:08.969Z,10.00
2018-11-02T00:39:15.494Z,10.00
2018-11-02T00:41:21.881Z,10.00
2018-11-02T00:43:34.150Z,10.10
2018-11-02T00:45:44.987Z,10.00
2018-11-02T00:47:53.006Z,10.00
2018-11-02T00:50:01.271Z,10.10
2018-11-02T00:52:15.750Z,10.10
2018-11-02T00:54:27.365Z,10.00
2018-11-02T00:56:36.768Z,10.10
2018-11-02T00:58:42.280Z,10.00
2018-11-02T01:00:51.995Z,10.10
2018-11-02T01:02:59.195Z,10.10
2018-11-02T01:05:08.120Z,10.10
2018-11-02T01:07:14.343Z,10.10
2018-11-02T01:09:29.511Z,10.10
2018-11-02T01:11:39.443Z,10.10
2018-11-02T01:13:43.707Z,10.10
2018-11-02T01:15:47.982Z,10.10
2018-11-02T01:17:52.210Z,10.10
2018-11-02T01:19:58.073Z,10.10
2018-11-02T01:22:04.218Z,10.10
2018-11-02T01:24:08.532Z,10.10
2018-11-02T01:26:23.323Z,10.10
2018-11-02T01:28:53.916Z,10.10
2018-11-02T01:31:07.261Z,10.20
2018-11-02T01:33:15.048Z,10.20
2018-11-02T01:35:21.474Z,10.10
2018-11-02T01:37:27.007Z,10.20
2018-11-02T01:39:35.407Z,10.20
2018-11-02T01:41:41.684Z,10.10
2018-11-02T01:43:48.537Z,10.10
2018-11-02T01:45:56.230Z,10.10
2018-11-02T01:48:01.988Z,10.20
2018-11-02T01:50:10.120Z,10.10
2018-11-02T01:52:15.413Z,10.20
2018-11-02T01:54:20.882Z,10.20
2018-11-02T01:56:26.185Z,10.20
2018-11-02T01:58:32.101Z,10.20
2018-11-02T02:00:38.265Z,10.20
2018-11-02T02:02:44.715Z,10.20
2018-11-02T02:04:50.986Z,10.20
2018-11-02T02:06:55.148Z,10.20
2018-11-02T02:09:18.631Z,10.20
2018-11-02T02:11:30.515Z,10.20
2018-11-02T02:13:42.872Z,10.20
2018-11-02T02:15:50.595Z,10.20
2018-11-02T02:17:58.433Z,10.30
2018-11-02T02:20:05.462Z,10.30
2018-11-02T02:22:11.382Z,10.20
2018-11-02T02:24:18.027Z,10.30
2018-11-02T02:26:22.846Z,10.30
2018-11-02T02:28:27.959Z,10.30
2018-11-02T02:30:32.294Z,10.30
2018-11-02T02:32:36.741Z,10.30
2018-11-02T02:34:41.015Z,10.30
2018-11-02T02:36:45.202Z,10.30
2018-11-02T02:38:49.432Z,10.30
2018-11-02T02:40:53.647Z,10.30
2018-11-02T02:42:57.893Z,10.40
2018-11-02T02:45:02.859Z,10.30
2018-11-02T02:52:22.712Z,10.40
2018-11-02T02:54:26.950Z,10.40
2018-11-02T02:56:31.202Z,10.40
2018-11-02T02:58:35.378Z,10.40
2018-11-02T03:00:39.624Z,10.40
2018-11-02T03:02:44.065Z,10.30
2018-11-02T03:04:48.300Z,10.30
2018-11-02T03:06:52.622Z,10.30
2018-11-02T03:08:56.917Z,10.30
2018-11-02T03:11:01.363Z,10.30
2018-11-02T03:13:05.580Z,10.20
2018-11-02T03:15:10.056Z,10.30
2018-11-02T03:17:14.353Z,10.20
2018-11-02T03:19:18.684Z,10.20
2018-11-02T03:21:22.962Z,10.10
2018-11-02T03:23:27.184Z,10.10
2018-11-02T03:25:31.402Z,10.20
2018-11-02T03:27:35.566Z,10.10
2018-11-02T03:29:39.868Z,10.10
2018-11-02T03:31:44.084Z,10.10
2018-11-02T03:33:48.354Z,10.10
2018-11-02T03:35:52.599Z,10.20
2018-11-02T03:37:57.627Z,10.20
2018-11-02T03:40:02.477Z,10.20
2018-11-02T03:42:08.315Z,10.20
2018-11-02T03:44:12.558Z,10.20
2018-11-02T03:46:17.027Z,10.20
2018-11-02T03:48:22.199Z,10.30
2018-11-02T03:50:26.756Z,10.30
2018-11-02T03:52:30.991Z,10.30
2018-11-02T03:54:35.526Z,10.30
2018-11-02T03:56:40.165Z,10.30
2018-11-02T03:58:44.428Z,10.30
2018-11-02T04:00:48.848Z,10.30
2018-11-02T04:02:53.419Z,10.30
2018-11-02T04:04:58.256Z,10.40
2018-11-02T04:07:03.383Z,10.40
2018-11-02T04:09:09.596Z,10.30
2018-11-02T04:11:14.536Z,10.40
2018-11-02T04:13:19.031Z,10.40
2018-11-02T04:15:24.013Z,10.40
2018-11-02T04:17:28.277Z,10.40
2018-11-02T04:19:32.589Z,10.40
2018-11-02T04:21:44.183Z,10.40
2018-11-02T04:23:48.563Z,10.40
2018-11-02T04:25:52.839Z,10.40
2018-11-02T04:27:57.116Z,10.40
2018-11-02T04:30:01.365Z,10.40
2018-11-02T04:32:05.914Z,10.40
2018-11-02T04:34:10.147Z,10.40
2018-11-02T04:36:14.445Z,10.40
2018-11-02T04:38:18.718Z,10.40
2018-11-02T04:40:23.039Z,10.40
2018-11-02T04:42:27.258Z,10.40
2018-11-02T04:44:31.472Z,10.40
2018-11-02T04:46:35.958Z,10.40
2018-11-02T04:48:40.266Z,10.40
2018-11-02T04:50:44.480Z,10.40
2018-11-02T04:52:48.755Z,10.40
2018-11-02T04:54:52.962Z,10.40
2018-11-02T04:56:57.246Z,10.40
2018-11-02T04:59:01.562Z,10.40
2018-11-02T05:01:06.175Z,10.40
2018-11-02T05:03:10.428Z,10.40
2018-11-02T05:05:14.746Z,10.40
2018-11-02T05:07:19.031Z,10.40
2018-11-02T05:09:23.220Z,10.40
2018-11-02T05:11:27.647Z,10.40
2018-11-02T05:13:31.867Z,10.30
2018-11-02T05:15:36.165Z,10.40
2018-11-02T05:17:40.390Z,10.40
2018-11-02T05:19:44.616Z,10.50
2018-11-02T05:21:48.914Z,10.40
2018-11-02T05:23:53.210Z,10.40
2018-11-02T05:25:57.570Z,10.40
2018-11-02T05:28:01.842Z,10.40
2018-11-02T05:30:07.472Z,10.40
2018-11-02T05:32:11.711Z,10.40
2018-11-02T05:34:16.687Z,10.40
2018-11-02T05:36:21.039Z,10.30
2018-11-02T05:38:25.311Z,10.30
2018-11-02T05:40:30.556Z,10.30
2018-11-02T05:42:34.742Z,10.30
2018-11-02T05:44:38.967Z,10.20
2018-11-02T05:46:43.324Z,10.20
2018-11-02T05:48:47.600Z,10.20
2018-11-02T05:50:53.071Z,10.20
2018-11-02T05:52:57.357Z,10.20
2018-11-02T05:55:01.755Z,10.10
2018-11-02T05:57:06.321Z,10.10
2018-11-02T05:59:10.990Z,10.20
2018-11-02T06:01:15.277Z,10.20
2018-11-02T06:03:19.503Z,10.20
2018-11-02T06:05:23.661Z,10.10
2018-11-02T06:07:27.867Z,10.00
2018-11-02T06:09:32.098Z,10.00
2018-11-02T06:11:36.340Z,10.00
2018-11-02T06:13:40.661Z,10.00
2018-11-02T06:15:44.851Z,10.00
2018-11-02T06:17:49.186Z,10.00
2018-11-02T06:19:53.505Z,10.00
2018-11-02T06:21:57.816Z,10.00
2018-11-02T06:24:03.835Z,10.00
2018-11-02T06:26:08.463Z,10.00
2018-11-02T06:28:12.976Z,10.00
2018-11-02T06:30:17.745Z,10.00
2018-11-02T06:32:22.793Z,10.00
2018-11-02T06:34:27.011Z,10.00
2018-11-02T06:36:31.259Z,10.00
2018-11-02T06:38:35.554Z,9.90
2018-11-02T06:40:39.854Z,9.90
2018-11-02T06:42:44.090Z,9.80
2018-11-02T06:44:48.323Z,9.80
2018-11-02T06:46:52.661Z,9.80
2018-11-02T06:48:56.902Z,9.80
2018-11-02T06:51:01.278Z,9.80
2018-11-02T06:53:05.659Z,9.80
2018-11-02T06:55:10.455Z,9.80
2018-11-02T06:57:14.759Z,9.90
2018-11-02T06:59:19.061Z,9.90
2018-11-02T07:01:23.220Z,9.80
2018-11-02T07:03:27.922Z,9.80
2018-11-02T07:05:32.103Z,9.80
2018-11-02T07:07:36.648Z,9.80
2018-11-02T07:09:40.736Z,9.80
2018-11-02T07:11:44.995Z,9.80
2018-11-02T07:13:49.181Z,9.80
2018-11-02T07:15:53.470Z,9.80
2018-11-02T07:17:57.895Z,9.80
2018-11-02T07:20:02.794Z,9.80
2018-11-02T07:22:06.930Z,9.80
2018-11-02T07:24:11.253Z,9.80
2018-11-02T07:26:15.547Z,9.70
2018-11-02T07:28:19.838Z,9.80
2018-11-02T07:30:23.950Z,9.80
2018-11-02T07:32:28.160Z,9.80
2018-11-02T07:34:32.401Z,9.80
2018-11-02T07:36:36.589Z,9.80
2018-11-02T07:38:40.875Z,9.80
2018-11-02T07:40:45.052Z,9.80
2018-11-02T07:42:49.261Z,9.80
2018-11-02T07:44:53.554Z,9.80
2018-11-02T07:46:58.340Z,9.80
2018-11-02T07:49:02.526Z,9.90
2018-11-02T07:51:06.886Z,9.90
2018-11-02T07:53:11.047Z,10.00
2018-11-02T07:55:15.875Z,10.00
2018-11-02T07:57:20.085Z,10.00
2018-11-02T07:59:24.340Z,10.00
2018-11-02T08:01:28.509Z,10.00
2018-11-02T08:03:33.255Z,10.00
2018-11-02T08:05:37.455Z,10.00
2018-11-02T08:07:41.772Z,10.00
2018-11-02T08:09:46.025Z,10.00
2018-11-02T08:11:50.232Z,10.00
2018-11-02T08:13:54.434Z,9.90
2018-11-02T08:15:58.727Z,9.90
2018-11-02T08:19:06.358Z,9.80
2018-11-02T08:21:10.435Z,9.80
2018-11-02T08:25:40.211Z,9.80
2018-11-02T08:27:44.439Z,9.80
2018-11-02T08:29:48.676Z,9.90
2018-11-02T08:31:53.007Z,9.90
2018-11-02T08:33:57.190Z,9.80
2018-11-02T08:36:01.352Z,9.80
2018-11-02T08:38:05.630Z,9.80
2018-11-02T08:40:11.083Z,9.90
2018-11-02T08:42:15.319Z,9.90
2018-11-02T08:44:19.534Z,9.90
2018-11-02T08:46:23.684Z,10.00
2018-11-02T08:48:27.919Z,10.00
2018-11-02T08:50:32.142Z,10.10
2018-11-02T08:52:36.311Z,10.10
2018-11-02T08:54:40.967Z,10.10
2018-11-02T08:56:45.170Z,10.20
2018-11-02T08:58:49.552Z,10.20
2018-11-02T09:00:53.726Z,10.30
2018-11-02T09:02:57.882Z,10.30
2018-11-02T09:05:02.373Z,10.30
2018-11-02T09:07:06.800Z,10.30
2018-11-02T09:09:11.335Z,10.20
2018-11-02T09:11:15.487Z,10.20
2018-11-02T09:13:19.662Z,10.30
2018-11-02T09:15:23.894Z,10.30
2018-11-02T09:17:28.101Z,10.40
2018-11-02T09:19:32.414Z,10.50
2018-11-02T09:21:36.546Z,10.50
2018-11-02T09:23:40.774Z,10.50
2018-11-02T09:25:45.057Z,10.50
2018-11-02T09:27:49.308Z,10.60
2018-11-02T09:29:53.418Z,10.70
2018-11-02T09:31:57.649Z,10.70
2018-11-02T09:34:02.023Z,10.60
2018-11-02T09:36:06.538Z,10.60
2018-11-02T09:38:10.747Z,10.60
2018-11-02T09:40:15.104Z,10.60
2018-11-02T09:42:19.272Z,10.50
2018-11-02T09:44:23.480Z,10.60
2018-11-02T09:46:27.810Z,10.60
2018-11-02T09:48:32.091Z,10.70
2018-11-02T09:50:36.307Z,10.60
2018-11-02T09:52:40.718Z,10.60
2018-11-02T09:54:44.885Z,10.70
2018-11-02T09:56:49.147Z,10.70
2018-11-02T09:58:53.388Z,10.80
2018-11-02T10:00:57.694Z,10.90
2018-11-02T10:03:01.927Z,10.90
2018-11-02T10:05:08.237Z,11.10
2018-11-02T10:07:12.428Z,11.10
2018-11-02T10:09:16.787Z,11.10
2018-11-02T10:11:20.985Z,11.10
2018-11-02T10:13:25.235Z,11.20
2018-11-02T10:15:29.466Z,11.30
2018-11-02T10:17:33.654Z,11.50
2018-11-02T10:19:37.937Z,11.40
2018-11-02T10:21:42.205Z,11.50
2018-11-02T10:23:46.435Z,11.40
2018-11-02T10:25:50.713Z,11.40
2018-11-02T10:27:55.074Z,11.40
2018-11-02T10:29:59.334Z,11.30
2018-11-02T10:32:03.680Z,11.20
2018-11-02T10:34:07.957Z,11.10
2018-11-02T10:36:12.280Z,11.00
2018-11-02T10:38:16.592Z,10.90
2018-11-02T10:40:20.876Z,10.90
2018-11-02T10:42:25.255Z,10.80
2018-11-02T10:44:32.246Z,10.80
2018-11-02T10:46:36.972Z,10.90
2018-11-02T10:48:41.189Z,11.00
2018-11-02T10:50:45.523Z,11.20
2018-11-02T10:52:49.747Z,11.30
2018-11-02T10:54:53.967Z,11.30
2018-11-02T10:56:58.251Z,11.30
2018-11-02T10:59:02.427Z,11.40
2018-11-02T11:01:11.916Z,11.40
2018-11-02T11:03:16.131Z,11.30
2018-11-02T11:05:20.378Z,11.30
2018-11-02T11:07:24.747Z,11.30
2018-11-02T11:09:29.026Z,11.30
2018-11-02T11:11:33.288Z,11.40
2018-11-02T11:13:37.980Z,11.40
2018-11-02T11:15:41.825Z,11.30
2018-11-02T11:17:46.127Z,11.40
2018-11-02T11:19:50.395Z,11.50
2018-11-02T11:21:54.682Z,11.60
2018-11-02T11:24:02.571Z,11.50
2018-11-02T11:26:07.687Z,11.60
2018-11-02T11:28:11.906Z,11.60
2018-11-02T11:30:18.121Z,11.70
2018-11-02T11:32:22.440Z,11.70
2018-11-02T11:34:26.750Z,11.80
2018-11-02T11:36:30.971Z,11.90
2018-11-02T11:38:35.438Z,12.00
2018-11-02T11:40:39.690Z,12.00
2018-11-02T11:42:46.544Z,12.10
2018-11-02T11:44:51.847Z,12.00
2018-11-02T11:47:04.196Z,12.00
2018-11-02T11:49:17.985Z,12.10
2018-11-02T11:53:50.211Z,12.30
2018-11-02T11:55:56.475Z,12.40
2018-11-02T11:58:00.748Z,12.30
2018-11-02T12:00:05.781Z,12.20
2018-11-02T12:02:10.044Z,12.10
2018-11-02T12:04:22.552Z,12.20
2018-11-02T12:06:26.829Z,12.10
2018-11-02T12:08:33.486Z,12.00
2018-11-02T12:10:38.926Z,12.20
2018-11-02T12:12:43.160Z,12.40
2018-11-02T12:14:48.035Z,12.60
2018-11-02T12:16:55.808Z,12.50
2018-11-02T12:24:19.685Z,12.70
2018-11-02T12:26:23.704Z,12.70
2018-11-02T12:28:29.244Z,12.40
2018-11-02T12:30:33.564Z,12.10
2018-11-02T12:32:38.711Z,12.00
2018-11-02T12:34:46.088Z,12.30
2018-11-02T12:36:50.030Z,12.80
2018-11-02T12:38:57.803Z,13.40
2018-11-02T12:41:02.875Z,13.60
2018-11-02T12:43:07.231Z,13.70
2018-11-02T12:45:13.743Z,13.20
2018-11-02T12:47:17.666Z,12.70
2018-11-02T12:49:21.969Z,12.50
2018-11-02T12:51:25.692Z,12.40
2018-11-02T12:53:29.663Z,13.00
2018-11-02T12:55:33.617Z,12.40
2018-11-02T12:57:38.277Z,12.30
2018-11-02T12:59:42.207Z,12.20
2018-11-02T13:01:46.090Z,12.10
2018-11-02T13:03:50.914Z,12.00
2018-11-02T13:05:54.906Z,11.80
2018-11-02T13:07:58.841Z,11.80
2018-11-02T13:10:02.778Z,11.60
2018-11-02T13:12:06.886Z,11.60
2018-11-02T13:14:10.917Z,11.60
2018-11-02T13:16:14.924Z,11.50
2018-11-02T13:18:20.603Z,11.50
2018-11-02T13:20:24.583Z,11.50
2018-11-02T13:22:28.900Z,11.50
2018-11-02T13:24:33.130Z,11.50
2018-11-02T13:26:37.380Z,11.80
2018-11-02T13:28:41.725Z,11.80
2018-11-02T13:30:45.987Z,11.80
2018-11-02T13:32:50.180Z,11.80
2018-11-02T13:34:54.389Z,11.70
2018-11-02T13:36:58.684Z,12.00
2018-11-02T13:39:03.022Z,12.40
2018-11-02T13:41:07.339Z,12.10
2018-11-02T13:43:11.619Z,11.80
2018-11-02T13:45:16.981Z,11.60
2018-11-02T13:47:21.271Z,11.50
2018-11-02T13:49:25.415Z,11.50
2018-11-02T13:51:29.763Z,11.40
2018-11-02T13:53:33.946Z,11.40
2018-11-02T13:55:38.167Z,11.20
2018-11-02T13:57:42.570Z,11.20
2018-11-02T13:59:46.798Z,11.20
2018-11-02T14:01:51.167Z,11.20
2018-11-02T14:03:55.457Z,11.20
2018-11-02T14:05:59.641Z,11.10
2018-11-02T14:08:03.849Z,11.10
2018-11-02T14:10:08.882Z,11.10
2018-11-02T14:12:13.094Z,11.10
2018-11-02T14:14:17.390Z,11.10
2018-11-02T14:16:21.634Z,12.30
2018-11-02T14:18:25.967Z,13.50
2018-11-02T14:20:30.180Z,14.50
2018-11-02T14:22:34.351Z,14.70
2018-11-02T14:24:38.554Z,14.00
2018-11-02T14:26:42.816Z,13.20
2018-11-02T14:28:47.029Z,12.70
2018-11-02T14:30:51.238Z,12.30
2018-11-02T14:32:55.429Z,12.00
2018-11-02T14:34:59.956Z,11.70
2018-11-02T14:37:04.252Z,11.60
2018-11-02T14:39:12.604Z,11.40
2018-11-02T14:41:16.880Z,11.20
2018-11-02T14:43:21.095Z,11.10
2018-11-02T14:45:25.273Z,10.90
2018-11-02T14:47:29.454Z,10.90
2018-11-02T14:49:33.643Z,10.80
2018-11-02T14:51:37.959Z,10.80
2018-11-02T14:53:42.257Z,10.70
2018-11-02T14:55:46.430Z,10.70
2018-11-02T14:57:50.659Z,10.80
2018-11-02T14:59:54.981Z,10.70
2018-11-02T15:01:59.219Z,10.70
2018-11-02T15:04:03.775Z,10.70
2018-11-02T15:06:07.972Z,10.60
2018-11-02T15:08:12.285Z,10.70
2018-11-02T15:10:16.542Z,10.60
2018-11-02T15:12:20.811Z,10.60
2018-11-02T15:14:25.050Z,10.60
2018-11-02T15:16:29.324Z,10.60
2018-11-02T15:18:33.558Z,10.60
2018-11-02T15:20:37.843Z,10.60
2018-11-02T15:22:43.101Z,10.50
2018-11-02T15:24:47.473Z,10.50
2018-11-02T15:26:51.691Z,10.50
2018-11-02T15:28:55.884Z,10.50
2018-11-02T15:31:00.154Z,10.40
2018-11-02T15:33:04.423Z,10.40
2018-11-02T15:35:09.495Z,10.40
2018-11-02T15:37:13.706Z,10.30
2018-11-02T15:39:18.823Z,10.40
2018-11-02T15:41:23.104Z,10.30
2018-11-02T15:43:27.327Z,10.30
2018-11-02T15:45:31.567Z,10.30
2018-11-02T15:47:35.777Z,10.30
2018-11-02T15:49:40.019Z,10.20
2018-11-02T15:51:44.571Z,10.20
2018-11-02T15:53:48.851Z,10.20
2018-11-02T15:55:53.050Z,10.10
2018-11-02T15:57:57.343Z,10.20
2018-11-02T16:00:01.507Z,10.10
2018-11-02T16:02:06.186Z,10.10
2018-11-02T16:04:10.408Z,10.10
2018-11-02T16:06:14.627Z,10.00
2018-11-02T16:08:18.833Z,10.00
2018-11-02T16:10:23.098Z,9.90
2018-11-02T16:12:27.381Z,9.90
2018-11-02T16:14:31.670Z,9.90
2018-11-02T16:16:35.849Z,9.80
2018-11-02T16:18:40.079Z,9.80
2018-11-02T16:20:44.325Z,9.80
2018-11-02T16:22:48.591Z,9.80
2018-11-02T16:24:52.846Z,9.70
2018-11-02T16:26:57.046Z,9.80
2018-11-02T16:29:01.254Z,9.80
2018-11-02T16:31:05.549Z,9.70
2018-11-02T16:33:09.793Z,9.70
2018-11-02T16:35:14.037Z,9.70
2018-11-02T16:37:18.246Z,9.60
2018-11-02T16:39:22.411Z,9.60
2018-11-02T16:41:26.625Z,9.70
2018-11-02T16:43:30.909Z,9.60
2018-11-02T16:45:35.170Z,9.60
2018-11-02T16:47:39.633Z,9.60
2018-11-02T16:49:43.814Z,9.60
2018-11-02T16:51:47.997Z,9.50
2018-11-02T16:53:52.279Z,9.40
2018-11-02T16:55:56.537Z,9.30
2018-11-02T16:58:00.960Z,9.20
2018-11-02T17:00:07.930Z,9.20
2018-11-02T17:02:12.072Z,9.20
2018-11-02T17:04:16.234Z,9.10
2018-11-02T17:06:20.446Z,9.10
2018-11-02T17:08:24.670Z,9.00
2018-11-02T17:10:28.848Z,9.00
2018-11-02T17:12:33.362Z,9.00
2018-11-02T17:14:37.600Z,9.00
2018-11-02T17:16:41.890Z,8.90
2018-11-02T17:18:46.104Z,8.80
2018-11-02T17:20:50.330Z,8.80
2018-11-02T17:22:54.481Z,8.70
2018-11-02T17:24:58.713Z,8.60
2018-11-02T17:27:02.936Z,8.50
2018-11-02T17:29:07.326Z,8.50
2018-11-02T17:31:11.599Z,8.40
2018-11-02T17:33:16.567Z,8.30
2018-11-02T17:35:21.893Z,8.20
2018-11-02T17:37:26.180Z,8.20
2018-11-02T17:39:30.370Z,8.20
2018-11-02T17:41:35.079Z,8.10
2018-11-02T17:43:39.760Z,8.10
2018-11-02T17:45:43.985Z,8.10
2018-11-02T17:47:48.331Z,8.00
2018-11-02T17:49:52.997Z,8.00
2018-11-02T17:51:57.582Z,7.90
2018-11-02T17:54:03.077Z,7.90
2018-11-02T17:56:07.260Z,7.90
2018-11-02T17:58:11.502Z,7.80
2018-11-02T18:00:15.726Z,7.80
2018-11-02T18:02:20.369Z,7.80
2018-11-02T18:04:24.671Z,7.70
2018-11-02T18:06:28.833Z,7.70
2018-11-02T18:08:33.098Z,7.60
2018-11-02T18:10:37.350Z,7.70
2018-11-02T18:12:41.601Z,7.60
2018-11-02T18:14:45.963Z,7.60
2018-11-02T18:16:50.150Z,7.70
2018-11-02T18:18:54.450Z,7.60
2018-11-02T18:20:58.670Z,7.60
2018-11-02T18:23:02.911Z,7.50
2018-11-02T18:25:07.594Z,7.50
2018-11-02T18:27:11.877Z,7.40
2018-11-02T18:29:16.136Z,7.40
2018-11-02T18:31:20.393Z,7.30
2018-11-02T18:33:24.627Z,7.30
2018-11-02T18:35:29.044Z,7.30
2018-11-02T18:37:33.208Z,7.20
2018-11-02T18:39:37.403Z,7.20
2018-11-02T18:41:42.250Z,7.10
2018-11-02T18:43:46.526Z,7.10
2018-11-02T18:45:50.727Z,7.00
2018-11-02T18:47:55.849Z,6.90
2018-11-02T18:50:00.110Z,6.90
2018-11-02T18:52:04.424Z,6.80
2018-11-02T18:54:09.249Z,6.70
2018-11-02T18:56:13.442Z,6.80
2018-11-02T18:58:21.859Z,6.80
2018-11-02T19:00:26.107Z,6.80
2018-11-02T19:02:42.111Z,6.90
2018-11-02T19:04:46.335Z,6.70
2018-11-02T19:06:50.508Z,6.80
2018-11-02T19:08:54.758Z,6.80
2018-11-02T19:10:58.901Z,6.70
2018-11-02T19:13:03.160Z,6.80
2018-11-02T19:15:09.742Z,6.70
2018-11-02T19:17:13.950Z,6.70
2018-11-02T19:19:18.137Z,6.60
2018-11-02T19:21:22.290Z,6.40
2018-11-02T19:23:26.543Z,6.40
2018-11-02T19:25:30.762Z,6.50
2018-11-02T19:27:35.184Z,6.50
2018-11-02T19:29:39.372Z,6.50
2018-11-02T19:31:44.146Z,6.40
2018-11-02T19:33:48.415Z,6.20
2018-11-02T19:35:52.591Z,6.20
2018-11-02T19:37:56.836Z,6.10
2018-11-02T19:40:01.027Z,6.10
2018-11-02T19:42:05.392Z,6.10
2018-11-02T19:44:09.654Z,6.20
2018-11-02T19:46:14.084Z,6.20
2018-11-02T19:48:18.313Z,6.20
2018-11-02T19:50:22.551Z,6.20
2018-11-02T19:52:26.691Z,6.10
2018-11-02T19:54:30.914Z,6.10
2018-11-02T19:56:35.202Z,6.10
2018-11-02T19:58:39.614Z,6.20
2018-11-02T20:00:43.838Z,6.20
2018-11-02T20:02:48.105Z,6.20
2018-11-02T20:04:52.251Z,6.20
2018-11-02T20:06:56.526Z,6.10
2018-11-02T20:09:00.743Z,6.10
2018-11-02T20:11:06.070Z,6.10
2018-11-02T20:13:10.326Z,6.10
2018-11-02T20:15:15.277Z,6.10
2018-11-02T20:17:19.447Z,6.10
2018-11-02T20:19:23.709Z,6.10
2018-11-02T20:21:27.992Z,6.10
2018-11-02T20:23:32.239Z,6.10
2018-11-02T20:25:36.453Z,5.90
2018-11-02T20:27:40.726Z,6.00
2018-11-02T20:29:44.935Z,5.90
2018-11-02T20:31:49.217Z,5.80
2018-11-02T20:33:53.391Z,5.70
2018-11-02T20:35:57.716Z,5.80
2018-11-02T20:38:01.909Z,5.80
2018-11-02T20:40:08.683Z,5.80
2018-11-02T20:42:13.019Z,5.80
2018-11-02T20:44:17.281Z,5.80
2018-11-02T20:46:21.510Z,5.80
2018-11-02T20:48:25.691Z,5.80
2018-11-02T20:50:30.030Z,5.80
2018-11-02T20:52:34.278Z,5.80
2018-11-02T20:54:38.637Z,5.80
2018-11-02T20:56:42.796Z,5.80
2018-11-02T20:58:47.039Z,5.60
2018-11-02T21:00:51.326Z,5.70
2018-11-02T21:02:55.667Z,5.60
2018-11-02T21:04:59.867Z,5.60
2018-11-02T21:07:04.090Z,5.60
2018-11-02T21:09:10.625Z,5.60
2018-11-02T21:11:14.686Z,5.50
2018-11-02T21:13:18.987Z,5.50
2018-11-02T21:15:24.582Z,5.40
2018-11-02T21:17:28.814Z,5.50
2018-11-02T21:19:33.374Z,5.40
2018-11-02T21:21:37.561Z,5.40
2018-11-02T21:23:41.806Z,5.30
2018-11-02T21:25:46.063Z,5.30
2018-11-02T21:27:50.336Z,5.30
2018-11-02T21:29:54.569Z,5.30
2018-11-02T21:31:59.651Z,5.30
2018-11-02T21:34:03.915Z,5.30
2018-11-02T21:36:08.229Z,5.40
2018-11-02T21:38:12.573Z,5.30
2018-11-02T21:40:18.886Z,5.30
2018-11-02T21:42:23.070Z,5.30
2018-11-02T21:44:27.381Z,5.20
2018-11-02T21:46:31.593Z,5.10
2018-11-02T21:48:35.841Z,5.00
2018-11-02T21:50:40.061Z,5.00
2018-11-02T21:52:44.273Z,5.00
2018-11-02T21:54:48.549Z,5.00
2018-11-02T21:56:52.809Z,5.10
2018-11-02T21:58:57.060Z,5.10
2018-11-02T22:01:01.413Z,5.10
2018-11-02T22:03:05.722Z,5.10
2018-11-02T22:05:11.478Z,5.10
2018-11-02T22:07:15.726Z,5.00
2018-11-02T22:09:19.942Z,5.00
2018-11-02T22:11:24.315Z,4.80
2018-11-02T22:13:28.454Z,4.70
2018-11-02T22:15:33.290Z,4.70
2018-11-02T22:17:37.568Z,4.70
2018-11-02T22:19:41.756Z,4.60
2018-11-02T22:21:45.942Z,4.60
2018-11-02T22:23:50.137Z,4.70
2018-11-02T22:25:54.346Z,4.70
2018-11-02T22:27:58.574Z,4.60
2018-11-02T22:30:03.825Z,4.60
2018-11-02T22:32:08.117Z,4.50
2018-11-02T22:34:12.391Z,4.50
2018-11-02T22:36:16.657Z,4.60
2018-11-02T22:38:20.898Z,4.60
2018-11-02T22:40:25.054Z,4.60
2018-11-02T22:42:30.167Z,4.50
2018-11-02T22:44:34.362Z,4.60
2018-11-02T22:46:38.595Z,4.60
2018-11-02T22:48:43.021Z,4.50
2018-11-02T22:50:47.070Z,4.40
2018-11-02T22:52:51.266Z,4.40
2018-11-02T22:54:55.534Z,4.40
2018-11-02T22:56:59.779Z,4.40
2018-11-02T22:59:04.068Z,4.40
2018-11-02T23:01:13.552Z,4.40
2018-11-02T23:03:17.794Z,4.50
2018-11-02T23:05:22.022Z,4.40
2018-11-02T23:07:26.240Z,4.30
2018-11-02T23:09:30.450Z,4.30
2018-11-02T23:11:34.750Z,4.30
2018-11-02T23:13:38.929Z,4.30
2018-11-02T23:15:43.131Z,4.30
2018-11-02T23:17:47.370Z,4.40
2018-11-02T23:19:51.610Z,4.40
2018-11-02T23:21:55.850Z,4.40
2018-11-02T23:24:00.064Z,4.30
2018-11-02T23:26:04.407Z,4.20
2018-11-02T23:28:08.575Z,4.30
2018-11-02T23:30:12.851Z,4.20
2018-11-02T23:32:17.110Z,4.30
2018-11-02T23:34:21.318Z,4.30
2018-11-02T23:36:25.649Z,4.20
2018-11-02T23:38:29.877Z,4.10
2018-11-02T23:40:34.521Z,4.10
2018-11-02T23:42:38.782Z,4.10
2018-11-02T23:44:43.088Z,4.10
2018-11-02T23:46:47.255Z,4.10
2018-11-02T23:48:52.435Z,4.20
2018-11-02T23:50:56.648Z,4.10
2018-11-02T23:53:00.854Z,4.10
2018-11-02T23:55:05.099Z,4.10
2018-11-02T23:57:09.340Z,4.10
2018-11-02T23:59:13.614Z,4.10
